sensor_id;sensor_type;location;lat;lon;timestamp;pressure;altitude;pressure_sealevel;temperature;humidity
61900;BME280;47853;55.890;37.664;2022-11-15T00:01:07;99938.09;;;1.78;44.76
61900;BME280;47853;55.890;37.664;2022-11-15T00:03:33;99930.00;;;1.53;44.77
61900;BME280;47853;55.890;37.664;2022-11-15T00:06:03;99947.63;;;1.79;44.81
61900;BME280;47853;55.890;37.664;2022-11-15T00:08:30;99935.13;;;1.69;44.88
61900;BME280;47853;55.890;37.664;2022-11-15T00:11:01;99933.41;;;1.83;45.18
61900;BME280;47853;55.890;37.664;2022-11-15T00:13:27;99918.06;;;1.35;45.76
61900;BME280;47853;55.890;37.664;2022-11-15T00:15:52;99928.25;;;1.39;45.64
61900;BME280;47853;55.890;37.664;2022-11-15T00:18:21;99908.44;;;0.92;46.70
61900;BME280;47853;55.890;37.664;2022-11-15T00:20:46;99917.31;;;1.18;46.33
61900;BME280;47853;55.890;37.664;2022-11-15T00:23:12;99919.66;;;1.08;46.21
61900;BME280;47853;55.890;37.664;2022-11-15T00:25:37;99905.16;;;0.74;46.83
61900;BME280;47853;55.890;37.664;2022-11-15T00:28:03;99923.09;;;1.23;46.39
61900;BME280;47853;55.890;37.664;2022-11-15T00:30:28;99904.91;;;1.07;46.58
61900;BME280;47853;55.890;37.664;2022-11-15T00:32:54;99903.97;;;0.94;46.93
61900;BME280;47853;55.890;37.664;2022-11-15T00:35:20;99920.41;;;0.96;47.18
61900;BME280;47853;55.890;37.664;2022-11-15T00:37:45;99908.53;;;0.61;47.32
61900;BME280;47853;55.890;37.664;2022-11-15T00:40:11;99911.34;;;1.01;46.92
61900;BME280;47853;55.890;37.664;2022-11-15T00:42:36;99898.81;;;0.78;46.96
61900;BME280;47853;55.890;37.664;2022-11-15T00:45:02;99896.22;;;1.07;46.75
61900;BME280;47853;55.890;37.664;2022-11-15T00:47:27;99903.16;;;1.50;46.07
61900;BME280;47853;55.890;37.664;2022-11-15T00:49:52;99884.91;;;1.06;45.83
61900;BME280;47853;55.890;37.664;2022-11-15T00:52:18;99885.75;;;1.07;46.39
61900;BME280;47853;55.890;37.664;2022-11-15T00:54:43;99892.75;;;1.06;46.64
61900;BME280;47853;55.890;37.664;2022-11-15T00:57:09;99885.47;;;0.68;46.44
61900;BME280;47853;55.890;37.664;2022-11-15T00:59:34;99884.66;;;0.37;47.18
61900;BME280;47853;55.890;37.664;2022-11-15T01:02:00;99891.16;;;0.75;47.19
61900;BME280;47853;55.890;37.664;2022-11-15T01:04:25;99885.84;;;0.91;46.81
61900;BME280;47853;55.890;37.664;2022-11-15T01:06:50;99878.06;;;1.18;46.07
61900;BME280;47853;55.890;37.664;2022-11-15T01:09:15;99878.91;;;0.46;47.10
61900;BME280;47853;55.890;37.664;2022-11-15T01:11:41;99883.78;;;0.81;47.30
61900;BME280;47853;55.890;37.664;2022-11-15T01:14:06;99869.50;;;0.87;47.44
61900;BME280;47853;55.890;37.664;2022-11-15T01:16:32;99870.34;;;0.88;46.92
61900;BME280;47853;55.890;37.664;2022-11-15T01:18:57;99874.81;;;1.00;47.04
61900;BME280;47853;55.890;37.664;2022-11-15T01:21:22;99871.25;;;0.57;47.38
61900;BME280;47853;55.890;37.664;2022-11-15T01:23:48;99859.03;;;0.58;47.58
61900;BME280;47853;55.890;37.664;2022-11-15T01:26:14;99864.72;;;1.08;46.36
61900;BME280;47853;55.890;37.664;2022-11-15T01:28:41;99856.25;;;1.05;45.95
61900;BME280;47853;55.890;37.664;2022-11-15T01:31:12;99855.00;;;1.25;45.66
61900;BME280;47853;55.890;37.664;2022-11-15T01:33:38;99849.59;;;1.13;45.76
61900;BME280;47853;55.890;37.664;2022-11-15T01:36:09;99859.19;;;1.27;45.65
61900;BME280;47853;55.890;37.664;2022-11-15T01:38:35;99857.03;;;1.34;45.48
61900;BME280;47853;55.890;37.664;2022-11-15T01:41:00;99855.81;;;1.40;45.27
61900;BME280;47853;55.890;37.664;2022-11-15T01:43:32;99855.63;;;1.43;45.63
61900;BME280;47853;55.890;37.664;2022-11-15T01:46:06;99849.44;;;1.44;45.22
61900;BME280;47853;55.890;37.664;2022-11-15T01:48:37;99838.72;;;1.34;45.68
61900;BME280;47853;55.890;37.664;2022-11-15T01:51:07;99849.28;;;1.33;45.59
61900;BME280;47853;55.890;37.664;2022-11-15T01:53:35;99850.81;;;1.50;45.64
61900;BME280;47853;55.890;37.664;2022-11-15T01:56:06;99857.44;;;1.13;46.51
61900;BME280;47853;55.890;37.664;2022-11-15T01:58:34;99849.59;;;0.99;46.69
61900;BME280;47853;55.890;37.664;2022-11-15T02:01:00;99850.53;;;0.54;47.68
61900;BME280;47853;55.890;37.664;2022-11-15T02:03:33;99845.47;;;0.37;47.97
61900;BME280;47853;55.890;37.664;2022-11-15T02:05:59;99848.66;;;0.42;48.19
61900;BME280;47853;55.890;37.664;2022-11-15T02:08:24;99843.91;;;0.78;47.45
61900;BME280;47853;55.890;37.664;2022-11-15T02:10:50;99844.38;;;0.99;47.10
61900;BME280;47853;55.890;37.664;2022-11-15T02:13:16;99839.53;;;0.78;47.53
61900;BME280;47853;55.890;37.664;2022-11-15T02:16:05;99849.41;;;1.17;46.93
61900;BME280;47853;55.890;37.664;2022-11-15T02:18:37;99855.38;;;1.19;47.11
61900;BME280;47853;55.890;37.664;2022-11-15T02:21:25;99836.81;;;0.94;47.49
61900;BME280;47853;55.890;37.664;2022-11-15T02:27:31;99845.47;;;0.66;48.63
61900;BME280;47853;55.890;37.664;2022-11-15T02:37:51;99852.97;;;0.72;48.98
61900;BME280;47853;55.890;37.664;2022-11-15T02:40:31;99851.81;;;0.33;49.09
61900;BME280;47853;55.890;37.664;2022-11-15T02:43:08;99835.66;;;0.26;49.14
61900;BME280;47853;55.890;37.664;2022-11-15T02:45:44;99820.09;;;0.53;48.56
61900;BME280;47853;55.890;37.664;2022-11-15T02:48:12;99824.69;;;0.50;48.77
61900;BME280;47853;55.890;37.664;2022-11-15T02:50:37;99830.56;;;0.53;48.53
61900;BME280;47853;55.890;37.664;2022-11-15T02:53:03;99835.03;;;0.51;48.58
61900;BME280;47853;55.890;37.664;2022-11-15T02:55:32;99831.28;;;1.13;47.97
61900;BME280;47853;55.890;37.664;2022-11-15T03:07:06;99817.94;;;0.31;49.46
61900;BME280;47853;55.890;37.664;2022-11-15T03:09:23;99807.78;;;0.41;49.87
61900;BME280;47853;55.890;37.664;2022-11-15T03:12:01;99805.91;;;0.43;50.40
61900;BME280;47853;55.890;37.664;2022-11-15T03:14:40;99793.03;;;0.54;50.10
61900;BME280;47853;55.890;37.664;2022-11-15T03:17:18;99816.84;;;0.64;50.21
61900;BME280;47853;55.890;37.664;2022-11-15T03:19:47;99802.63;;;0.39;50.33
61900;BME280;47853;55.890;37.664;2022-11-15T03:22:17;99807.59;;;0.58;50.36
61900;BME280;47853;55.890;37.664;2022-11-15T03:24:45;99797.06;;;0.60;50.14
61900;BME280;47853;55.890;37.664;2022-11-15T03:27:15;99794.63;;;0.71;49.84
61900;BME280;47853;55.890;37.664;2022-11-15T03:29:46;99807.97;;;0.67;50.57
61900;BME280;47853;55.890;37.664;2022-11-15T03:32:18;99803.66;;;0.66;50.28
61900;BME280;47853;55.890;37.664;2022-11-15T03:34:45;99811.63;;;0.50;50.56
61900;BME280;47853;55.890;37.664;2022-11-15T03:37:14;99786.78;;;0.57;50.07
61900;BME280;47853;55.890;37.664;2022-11-15T03:39:42;99800.00;;;0.25;50.13
61900;BME280;47853;55.890;37.664;2022-11-15T03:42:18;99809.09;;;0.48;49.91
61900;BME280;47853;55.890;37.664;2022-11-15T03:45:02;99810.47;;;0.39;49.71
61900;BME280;47853;55.890;37.664;2022-11-15T03:47:34;99799.19;;;-0.06;51.28
61900;BME280;47853;55.890;37.664;2022-11-15T03:50:09;99795.69;;;0.09;50.58
61900;BME280;47853;55.890;37.664;2022-11-15T03:52:35;99810.84;;;0.33;50.36
61900;BME280;47853;55.890;37.664;2022-11-15T03:55:03;99802.25;;;0.31;50.33
61900;BME280;47853;55.890;37.664;2022-11-15T03:57:29;99790.78;;;-0.11;50.69
61900;BME280;47853;55.890;37.664;2022-11-15T03:59:54;99784.56;;;-0.09;50.75
61900;BME280;47853;55.890;37.664;2022-11-15T04:02:19;99787.69;;;0.12;50.13
61900;BME280;47853;55.890;37.664;2022-11-15T04:04:45;99783.31;;;0.27;49.74
61900;BME280;47853;55.890;37.664;2022-11-15T04:07:10;99776.59;;;0.38;49.63
61900;BME280;47853;55.890;37.664;2022-11-15T04:09:35;99789.13;;;0.47;49.37
61900;BME280;47853;55.890;37.664;2022-11-15T04:12:01;99784.06;;;0.58;49.57
61900;BME280;47853;55.890;37.664;2022-11-15T04:14:26;99783.44;;;0.55;49.08
61900;BME280;47853;55.890;37.664;2022-11-15T04:16:51;99782.19;;;0.46;49.69
61900;BME280;47853;55.890;37.664;2022-11-15T04:19:17;99784.72;;;0.33;49.35
61900;BME280;47853;55.890;37.664;2022-11-15T04:21:42;99775.00;;;0.21;49.66
61900;BME280;47853;55.890;37.664;2022-11-15T04:24:07;99777.63;;;0.35;49.75
61900;BME280;47853;55.890;37.664;2022-11-15T04:26:33;99792.28;;;0.38;49.23
61900;BME280;47853;55.890;37.664;2022-11-15T04:28:58;99787.88;;;0.38;49.16
61900;BME280;47853;55.890;37.664;2022-11-15T04:31:24;99774.09;;;0.51;49.49
61900;BME280;47853;55.890;37.664;2022-11-15T04:33:49;99778.38;;;0.52;49.54
61900;BME280;47853;55.890;37.664;2022-11-15T04:36:15;99777.44;;;0.67;48.68
61900;BME280;47853;55.890;37.664;2022-11-15T04:38:40;99785.19;;;0.69;48.81
61900;BME280;47853;55.890;37.664;2022-11-15T04:41:05;99782.75;;;0.80;49.09
61900;BME280;47853;55.890;37.664;2022-11-15T04:43:31;99777.72;;;0.63;49.31
61900;BME280;47853;55.890;37.664;2022-11-15T04:45:56;99769.97;;;0.61;49.60
61900;BME280;47853;55.890;37.664;2022-11-15T04:48:21;99769.53;;;0.69;49.48
61900;BME280;47853;55.890;37.664;2022-11-15T04:50:50;99760.28;;;1.05;48.50
61900;BME280;47853;55.890;37.664;2022-11-15T04:53:15;99763.63;;;1.22;48.04
61900;BME280;47853;55.890;37.664;2022-11-15T04:55:44;99759.38;;;0.92;48.49
61900;BME280;47853;55.890;37.664;2022-11-15T04:58:10;99744.84;;;0.73;48.92
61900;BME280;47853;55.890;37.664;2022-11-15T05:00:35;99746.91;;;1.37;47.97
61900;BME280;47853;55.890;37.664;2022-11-15T05:03:00;99767.59;;;1.00;48.19
61900;BME280;47853;55.890;37.664;2022-11-15T05:05:26;99746.84;;;0.55;49.52
61900;BME280;47853;55.890;37.664;2022-11-15T05:07:51;99754.13;;;0.50;49.84
61900;BME280;47853;55.890;37.664;2022-11-15T05:10:17;99757.19;;;0.56;49.73
61900;BME280;47853;55.890;37.664;2022-11-15T05:12:42;99760.72;;;0.55;49.94
61900;BME280;47853;55.890;37.664;2022-11-15T05:15:08;99753.25;;;0.78;49.45
61900;BME280;47853;55.890;37.664;2022-11-15T05:17:33;99757.00;;;0.74;48.87
61900;BME280;47853;55.890;37.664;2022-11-15T05:19:59;99738.31;;;0.66;49.32
61900;BME280;47853;55.890;37.664;2022-11-15T05:22:24;99746.81;;;0.69;49.26
61900;BME280;47853;55.890;37.664;2022-11-15T05:24:50;99747.28;;;0.76;49.15
61900;BME280;47853;55.890;37.664;2022-11-15T05:27:15;99753.63;;;0.72;49.19
61900;BME280;47853;55.890;37.664;2022-11-15T05:29:40;99752.19;;;0.81;49.12
61900;BME280;47853;55.890;37.664;2022-11-15T05:32:08;99742.97;;;1.17;48.70
61900;BME280;47853;55.890;37.664;2022-11-15T05:34:34;99748.38;;;0.86;48.46
61900;BME280;47853;55.890;37.664;2022-11-15T05:36:59;99744.66;;;0.76;49.54
61900;BME280;47853;55.890;37.664;2022-11-15T05:39:25;99730.34;;;0.25;50.05
61900;BME280;47853;55.890;37.664;2022-11-15T05:42:02;99739.75;;;0.28;50.37
61900;BME280;47853;55.890;37.664;2022-11-15T05:44:31;99736.72;;;0.78;49.24
61900;BME280;47853;55.890;37.664;2022-11-15T05:46:57;99737.63;;;0.91;48.87
61900;BME280;47853;55.890;37.664;2022-11-15T05:49:28;99717.66;;;0.90;48.63
61900;BME280;47853;55.890;37.664;2022-11-15T05:51:55;99718.53;;;0.76;48.84
61900;BME280;47853;55.890;37.664;2022-11-15T05:54:23;99725.63;;;0.60;49.35
61900;BME280;47853;55.890;37.664;2022-11-15T05:56:49;99739.63;;;0.73;49.34
61900;BME280;47853;55.890;37.664;2022-11-15T05:59:15;99721.09;;;0.91;49.02
61900;BME280;47853;55.890;37.664;2022-11-15T06:01:41;99733.16;;;0.93;48.70
61900;BME280;47853;55.890;37.664;2022-11-15T06:04:06;99728.53;;;1.24;47.99
61900;BME280;47853;55.890;37.664;2022-11-15T06:06:32;99720.22;;;1.32;47.45
61900;BME280;47853;55.890;37.664;2022-11-15T06:08:57;99726.25;;;1.20;47.74
61900;BME280;47853;55.890;37.664;2022-11-15T06:11:22;99717.31;;;1.50;47.65
61900;BME280;47853;55.890;37.664;2022-11-15T06:13:48;99725.00;;;1.25;47.76
61900;BME280;47853;55.890;37.664;2022-11-15T06:16:13;99726.44;;;1.44;46.89
61900;BME280;47853;55.890;37.664;2022-11-15T06:18:38;99713.91;;;1.22;47.33
61900;BME280;47853;55.890;37.664;2022-11-15T06:21:04;99717.84;;;1.42;46.92
61900;BME280;47853;55.890;37.664;2022-11-15T06:23:34;99713.31;;;1.31;47.32
61900;BME280;47853;55.890;37.664;2022-11-15T06:26:00;99716.13;;;1.00;47.93
61900;BME280;47853;55.890;37.664;2022-11-15T06:28:35;99706.88;;;1.22;47.27
61900;BME280;47853;55.890;37.664;2022-11-15T06:31:09;99706.28;;;1.04;47.12
61900;BME280;47853;55.890;37.664;2022-11-15T06:33:34;99708.03;;;0.91;47.90
61900;BME280;47853;55.890;37.664;2022-11-15T06:36:04;99703.31;;;0.96;47.85
61900;BME280;47853;55.890;37.664;2022-11-15T06:38:30;99704.06;;;1.25;47.29
61900;BME280;47853;55.890;37.664;2022-11-15T06:41:01;99694.88;;;1.05;47.47
61900;BME280;47853;55.890;37.664;2022-11-15T06:43:27;99701.97;;;0.90;47.53
61900;BME280;47853;55.890;37.664;2022-11-15T06:45:52;99699.47;;;0.74;47.72
61900;BME280;47853;55.890;37.664;2022-11-15T06:48:18;99700.63;;;0.97;47.63
61900;BME280;47853;55.890;37.664;2022-11-15T06:50:56;99698.84;;;0.98;47.16
61900;BME280;47853;55.890;37.664;2022-11-15T06:53:21;99699.50;;;0.87;47.50
61900;BME280;47853;55.890;37.664;2022-11-15T06:55:47;99692.84;;;0.68;47.87
61900;BME280;47853;55.890;37.664;2022-11-15T06:58:12;99697.06;;;0.56;48.45
61900;BME280;47853;55.890;37.664;2022-11-15T07:00:38;99693.03;;;0.65;48.46
61900;BME280;47853;55.890;37.664;2022-11-15T07:03:03;99681.19;;;0.74;48.48
61900;BME280;47853;55.890;37.664;2022-11-15T07:05:29;99675.41;;;0.96;47.93
61900;BME280;47853;55.890;37.664;2022-11-15T07:07:56;99674.22;;;1.15;47.40
61900;BME280;47853;55.890;37.664;2022-11-15T07:10:22;99678.25;;;1.06;47.32
61900;BME280;47853;55.890;37.664;2022-11-15T07:12:48;99662.84;;;1.29;46.63
61900;BME280;47853;55.890;37.664;2022-11-15T07:15:14;99655.31;;;1.37;46.36
61900;BME280;47853;55.890;37.664;2022-11-15T07:17:40;99657.66;;;1.55;46.20
61900;BME280;47853;55.890;37.664;2022-11-15T07:20:06;99658.63;;;1.26;46.01
61900;BME280;47853;55.890;37.664;2022-11-15T07:22:31;99656.16;;;1.51;45.98
61900;BME280;47853;55.890;37.664;2022-11-15T07:24:56;99668.03;;;1.95;45.01
61900;BME280;47853;55.890;37.664;2022-11-15T07:27:22;99660.38;;;1.53;44.98
61900;BME280;47853;55.890;37.664;2022-11-15T07:29:47;99653.94;;;1.32;45.67
61900;BME280;47853;55.890;37.664;2022-11-15T07:32:12;99656.13;;;-0.01;48.57
61900;BME280;47853;55.890;37.664;2022-11-15T07:34:38;99645.09;;;-0.50;50.21
61900;BME280;47853;55.890;37.664;2022-11-15T07:37:03;99655.28;;;-0.45;51.02
61900;BME280;47853;55.890;37.664;2022-11-15T07:39:28;99640.38;;;-0.28;50.60
61900;BME280;47853;55.890;37.664;2022-11-15T07:41:54;99644.78;;;0.00;49.96
61900;BME280;47853;55.890;37.664;2022-11-15T07:44:19;99649.16;;;0.14;49.55
61900;BME280;47853;55.890;37.664;2022-11-15T07:46:44;99648.03;;;0.33;49.01
61900;BME280;47853;55.890;37.664;2022-11-15T07:49:10;99643.16;;;0.41;48.35
61900;BME280;47853;55.890;37.664;2022-11-15T07:51:35;99630.31;;;0.23;48.98
61900;BME280;47853;55.890;37.664;2022-11-15T07:54:00;99644.09;;;0.40;49.17
61900;BME280;47853;55.890;37.664;2022-11-15T07:56:26;99643.28;;;0.10;49.82
61900;BME280;47853;55.890;37.664;2022-11-15T07:58:51;99647.09;;;0.19;50.21
61900;BME280;47853;55.890;37.664;2022-11-15T08:01:16;99633.50;;;-0.15;50.31
61900;BME280;47853;55.890;37.664;2022-11-15T08:03:42;99639.00;;;-0.34;51.00
61900;BME280;47853;55.890;37.664;2022-11-15T08:06:07;99639.25;;;-0.39;50.68
61900;BME280;47853;55.890;37.664;2022-11-15T08:08:32;99644.66;;;-0.27;51.15
61900;BME280;47853;55.890;37.664;2022-11-15T08:10:58;99633.59;;;-0.31;50.84
61900;BME280;47853;55.890;37.664;2022-11-15T08:13:23;99630.41;;;0.07;50.31
61900;BME280;47853;55.890;37.664;2022-11-15T08:15:49;99633.84;;;-0.36;51.33
61900;BME280;47853;55.890;37.664;2022-11-15T08:18:15;99631.78;;;-0.60;52.65
61900;BME280;47853;55.890;37.664;2022-11-15T08:20:41;99629.00;;;-0.27;52.19
61900;BME280;47853;55.890;37.664;2022-11-15T08:23:09;99633.69;;;-0.04;51.18
61900;BME280;47853;55.890;37.664;2022-11-15T08:25:35;99626.75;;;0.10;50.76
61900;BME280;47853;55.890;37.664;2022-11-15T08:28:03;99616.38;;;0.37;49.79
61900;BME280;47853;55.890;37.664;2022-11-15T08:30:29;99614.03;;;0.47;49.27
61900;BME280;47853;55.890;37.664;2022-11-15T08:32:57;99623.84;;;0.29;50.07
61900;BME280;47853;55.890;37.664;2022-11-15T08:35:22;99618.19;;;0.08;50.62
61900;BME280;47853;55.890;37.664;2022-11-15T08:37:48;99614.88;;;0.48;49.78
61900;BME280;47853;55.890;37.664;2022-11-15T08:40:13;99614.38;;;0.13;50.38
61900;BME280;47853;55.890;37.664;2022-11-15T08:42:39;99592.47;;;-0.42;51.30
61900;BME280;47853;55.890;37.664;2022-11-15T08:45:05;99607.75;;;-0.50;51.93
61900;BME280;47853;55.890;37.664;2022-11-15T08:47:30;99594.41;;;-0.46;52.38
61900;BME280;47853;55.890;37.664;2022-11-15T08:49:56;99593.00;;;-0.22;51.48
61900;BME280;47853;55.890;37.664;2022-11-15T08:52:21;99599.78;;;0.24;50.34
61900;BME280;47853;55.890;37.664;2022-11-15T08:54:47;99601.72;;;-0.36;51.23
61900;BME280;47853;55.890;37.664;2022-11-15T08:57:12;99599.44;;;-0.57;52.52
61900;BME280;47853;55.890;37.664;2022-11-15T08:59:37;99584.97;;;-0.77;52.97
61900;BME280;47853;55.890;37.664;2022-11-15T09:02:03;99572.22;;;-0.82;52.69
61900;BME280;47853;55.890;37.664;2022-11-15T09:04:29;99566.00;;;-0.50;52.46
61900;BME280;47853;55.890;37.664;2022-11-15T09:06:54;99575.97;;;-0.42;52.24
61900;BME280;47853;55.890;37.664;2022-11-15T09:09:19;99572.81;;;-0.33;52.73
61900;BME280;47853;55.890;37.664;2022-11-15T09:11:45;99569.59;;;-0.82;52.49
61900;BME280;47853;55.890;37.664;2022-11-15T09:14:12;99575.09;;;-0.72;53.60
61900;BME280;47853;55.890;37.664;2022-11-15T09:16:37;99581.22;;;-0.88;53.88
61900;BME280;47853;55.890;37.664;2022-11-15T09:19:03;99569.41;;;-0.79;54.00
61900;BME280;47853;55.890;37.664;2022-11-15T09:21:29;99569.28;;;-0.32;52.81
61900;BME280;47853;55.890;37.664;2022-11-15T09:23:54;99563.56;;;-0.24;51.90
61900;BME280;47853;55.890;37.664;2022-11-15T09:26:20;99570.38;;;-0.36;52.36
61900;BME280;47853;55.890;37.664;2022-11-15T09:28:45;99571.97;;;-0.19;51.72
61900;BME280;47853;55.890;37.664;2022-11-15T09:31:11;99566.25;;;0.45;50.49
61900;BME280;47853;55.890;37.664;2022-11-15T09:33:36;99555.06;;;0.83;49.90
61900;BME280;47853;55.890;37.664;2022-11-15T09:36:07;99562.75;;;0.99;49.04
61900;BME280;47853;55.890;37.664;2022-11-15T09:38:34;99558.72;;;0.81;48.85
61900;BME280;47853;55.890;37.664;2022-11-15T09:47:16;99562.84;;;0.98;48.80
61900;BME280;47853;55.890;37.664;2022-11-15T09:49:54;99557.13;;;1.19;49.26
61900;BME280;47853;55.890;37.664;2022-11-15T09:52:22;99562.06;;;1.36;48.19
61900;BME280;47853;55.890;37.664;2022-11-15T09:54:49;99550.72;;;1.49;47.84
61900;BME280;47853;55.890;37.664;2022-11-15T09:57:18;99555.00;;;0.98;48.17
61900;BME280;47853;55.890;37.664;2022-11-15T10:04:53;99539.63;;;0.53;49.50
61900;BME280;47853;55.890;37.664;2022-11-15T10:07:25;99537.00;;;0.93;48.87
61900;BME280;47853;55.890;37.664;2022-11-15T10:10:02;99536.56;;;0.86;48.93
61900;BME280;47853;55.890;37.664;2022-11-15T10:12:33;99532.00;;;1.16;48.43
61900;BME280;47853;55.890;37.664;2022-11-15T10:15:05;99529.31;;;0.64;49.49
61900;BME280;47853;55.890;37.664;2022-11-15T10:20:27;99504.38;;;1.38;47.92
61900;BME280;47853;55.890;37.664;2022-11-15T10:22:59;99501.94;;;1.48;47.29
61900;BME280;47853;55.890;37.664;2022-11-15T10:25:30;99500.25;;;1.59;47.53
61900;BME280;47853;55.890;37.664;2022-11-15T10:28:09;99498.13;;;1.78;47.09
61900;BME280;47853;55.890;37.664;2022-11-15T10:30:48;99502.81;;;1.35;47.07
61900;BME280;47853;55.890;37.664;2022-11-15T10:33:25;99503.00;;;1.19;48.64
61900;BME280;47853;55.890;37.664;2022-11-15T10:43:41;99491.38;;;1.99;47.34
61900;BME280;47853;55.890;37.664;2022-11-15T10:46:21;99490.59;;;1.73;47.47
61900;BME280;47853;55.890;37.664;2022-11-15T10:48:46;99467.50;;;1.91;46.75
61900;BME280;47853;55.890;37.664;2022-11-15T10:51:24;99469.59;;;2.23;46.82
61900;BME280;47853;55.890;37.664;2022-11-15T10:53:51;99474.66;;;2.73;45.78
61900;BME280;47853;55.890;37.664;2022-11-15T10:56:21;99478.13;;;2.38;46.10
61900;BME280;47853;55.890;37.664;2022-11-15T10:58:56;99466.19;;;2.70;45.61
61900;BME280;47853;55.890;37.664;2022-11-15T11:01:24;99461.97;;;1.83;46.35
61900;BME280;47853;55.890;37.664;2022-11-15T11:04:01;99461.88;;;1.21;48.20
61900;BME280;47853;55.890;37.664;2022-11-15T11:06:27;99460.78;;;1.50;48.17
61900;BME280;47853;55.890;37.664;2022-11-15T11:09:02;99444.63;;;1.06;48.30
61900;BME280;47853;55.890;37.664;2022-11-15T11:11:48;99448.59;;;1.74;47.72
61900;BME280;47853;55.890;37.664;2022-11-15T11:14:24;99449.47;;;1.62;47.83
61900;BME280;47853;55.890;37.664;2022-11-15T11:16:53;99448.84;;;1.58;48.21
61900;BME280;47853;55.890;37.664;2022-11-15T11:25:05;99442.38;;;1.51;48.47
61900;BME280;47853;55.890;37.664;2022-11-15T11:28:13;99440.06;;;1.47;48.89
61900;BME280;47853;55.890;37.664;2022-11-15T11:30:46;99431.22;;;1.73;48.49
61900;BME280;47853;55.890;37.664;2022-11-15T11:33:19;99413.66;;;2.11;47.30
61900;BME280;47853;55.890;37.664;2022-11-15T11:38:57;99425.47;;;1.31;48.90
61900;BME280;47853;55.890;37.664;2022-11-15T11:44:32;99409.75;;;1.44;49.45
61900;BME280;47853;55.890;37.664;2022-11-15T11:47:01;99412.72;;;1.13;50.63
61900;BME280;47853;55.890;37.664;2022-11-15T11:55:15;99407.06;;;1.20;51.09
61900;BME280;47853;55.890;37.664;2022-11-15T11:58:04;99383.22;;;1.11;51.35
61900;BME280;47853;55.890;37.664;2022-11-15T12:01:23;99400.88;;;1.21;51.42
61900;BME280;47853;55.890;37.664;2022-11-15T12:03:34;99398.19;;;0.96;52.32
61900;BME280;47853;55.890;37.664;2022-11-15T12:09:44;99407.34;;;0.37;54.05
61900;BME280;47853;55.890;37.664;2022-11-15T12:14:51;99402.25;;;0.36;55.13
61900;BME280;47853;55.890;37.664;2022-11-15T12:17:26;99399.88;;;0.18;55.83
61900;BME280;47853;55.890;37.664;2022-11-15T12:19:56;99394.81;;;-0.38;57.67
61900;BME280;47853;55.890;37.664;2022-11-15T12:22:28;99393.47;;;-0.31;58.12
61900;BME280;47853;55.890;37.664;2022-11-15T12:25:01;99385.97;;;-0.50;59.76
61900;BME280;47853;55.890;37.664;2022-11-15T12:30:20;99407.06;;;-1.11;62.46
61900;BME280;47853;55.890;37.664;2022-11-15T12:33:04;99393.22;;;-0.41;62.67
61900;BME280;47853;55.890;37.664;2022-11-15T12:35:37;99384.94;;;-0.48;63.22
61900;BME280;47853;55.890;37.664;2022-11-15T12:38:03;99390.91;;;-0.60;63.65
61900;BME280;47853;55.890;37.664;2022-11-15T12:40:34;99384.03;;;-0.61;64.47
61900;BME280;47853;55.890;37.664;2022-11-15T12:43:03;99389.25;;;-0.61;65.44
61900;BME280;47853;55.890;37.664;2022-11-15T12:45:33;99386.38;;;-0.71;66.03
61900;BME280;47853;55.890;37.664;2022-11-15T12:58:58;99365.84;;;-0.48;68.73
61900;BME280;47853;55.890;37.664;2022-11-15T13:04:28;99372.59;;;-0.73;70.89
61900;BME280;47853;55.890;37.664;2022-11-15T13:07:01;99365.88;;;-0.77;71.84
61900;BME280;47853;55.890;37.664;2022-11-15T13:14:49;99342.22;;;-0.74;73.13
61900;BME280;47853;55.890;37.664;2022-11-15T13:23:21;99335.34;;;-0.75;74.67
61900;BME280;47853;55.890;37.664;2022-11-15T13:25:41;99331.81;;;-0.47;73.99
61900;BME280;47853;55.890;37.664;2022-11-15T13:33:43;99325.66;;;-0.46;73.53
61900;BME280;47853;55.890;37.664;2022-11-15T13:36:19;99326.63;;;-0.34;74.03
61900;BME280;47853;55.890;37.664;2022-11-15T13:41:24;99315.91;;;0.24;73.07
61900;BME280;47853;55.890;37.664;2022-11-15T13:43:51;99319.94;;;0.03;73.22
61900;BME280;47853;55.890;37.664;2022-11-15T13:48:45;99313.47;;;0.21;73.34
61900;BME280;47853;55.890;37.664;2022-11-15T13:59:26;99304.09;;;0.19;73.28
61900;BME280;47853;55.890;37.664;2022-11-15T14:01:56;99303.13;;;-0.06;73.10
61900;BME280;47853;55.890;37.664;2022-11-15T14:04:23;99301.06;;;0.25;72.95
61900;BME280;47853;55.890;37.664;2022-11-15T14:06:53;99289.22;;;-0.07;72.77
61900;BME280;47853;55.890;37.664;2022-11-15T14:11:52;99303.09;;;-0.47;74.05
61900;BME280;47853;55.890;37.664;2022-11-15T14:14:21;99287.47;;;-0.74;74.90
61900;BME280;47853;55.890;37.664;2022-11-15T14:16:50;99301.78;;;-0.67;75.26
61900;BME280;47853;55.890;37.664;2022-11-15T14:22:16;99292.34;;;-0.55;75.45
61900;BME280;47853;55.890;37.664;2022-11-15T14:24:47;99280.69;;;-0.91;76.18
61900;BME280;47853;55.890;37.664;2022-11-15T14:27:29;99284.75;;;-0.73;76.37
61900;BME280;47853;55.890;37.664;2022-11-15T14:30:20;99289.78;;;-0.69;76.45
61900;BME280;47853;55.890;37.664;2022-11-15T14:32:48;99283.56;;;-0.54;76.39
61900;BME280;47853;55.890;37.664;2022-11-15T14:35:16;99281.13;;;-0.42;76.41
61900;BME280;47853;55.890;37.664;2022-11-15T14:37:43;99286.91;;;-0.79;76.78
61900;BME280;47853;55.890;37.664;2022-11-15T14:40:16;99274.75;;;-0.93;77.36
61900;BME280;47853;55.890;37.664;2022-11-15T14:42:42;99270.28;;;-0.91;77.18
61900;BME280;47853;55.890;37.664;2022-11-15T14:45:13;99271.72;;;-1.14;77.60
61900;BME280;47853;55.890;37.664;2022-11-15T14:47:39;99270.31;;;-1.06;78.43
61900;BME280;47853;55.890;37.664;2022-11-15T14:50:04;99264.50;;;-0.82;78.36
61900;BME280;47853;55.890;37.664;2022-11-15T14:52:34;99267.13;;;-0.96;77.96
61900;BME280;47853;55.890;37.664;2022-11-15T14:55:00;99256.28;;;-0.90;78.09
61900;BME280;47853;55.890;37.664;2022-11-15T14:57:26;99267.38;;;-0.86;78.14
61900;BME280;47853;55.890;37.664;2022-11-15T14:59:51;99260.75;;;-0.78;78.19
61900;BME280;47853;55.890;37.664;2022-11-15T15:02:25;99257.97;;;-0.34;77.38